sensor_id;sensor_type;location;lat;lon;timestamp;temperature;humidity
54788;DHT22;59598;48.112;16.280;2023-12-04T00:00:36;-4.50;1.00
54788;DHT22;59598;48.112;16.280;2023-12-04T00:03:07;-4.70;1.00
54788;DHT22;59598;48.112;16.280;2023-12-04T00:05:38;-4.40;1.00
54788;DHT22;59598;48.112;16.280;2023-12-04T00:08:13;-5.10;1.00
54788;DHT22;59598;48.112;16.280;2023-12-04T00:10:46;-5.20;1.00
54788;DHT22;59598;48.112;16.280;2023-12-04T00:13:20;-5.00;1.00
54788;DHT22;59598;48.112;16.280;2023-12-04T00:15:54;-4.90;1.00
54788;DHT22;59598;48.112;16.280;2023-12-04T00:18:29;-4.60;1.00
54788;DHT22;59598;48.112;16.280;2023-12-04T00:21:05;-4.50;1.00
54788;DHT22;59598;48.112;16.280;2023-12-04T00:23:39;-4.50;1.00
54788;DHT22;59598;48.112;16.280;2023-12-04T00:26:11;-4.40;1.00
54788;DHT22;59598;48.112;16.280;2023-12-04T00:28:42;-4.20;1.00
54788;DHT22;59598;48.112;16.280;2023-12-04T00:31:13;-4.30;1.00
54788;DHT22;59598;48.112;16.280;2023-12-04T00:33:47;-4.40;1.00
54788;DHT22;59598;48.112;16.280;2023-12-04T00:36:21;-4.50;1.00
54788;DHT22;59598;48.112;16.280;2023-12-04T00:38:55;-4.60;1.00
54788;DHT22;59598;48.112;16.280;2023-12-04T00:41:26;-4.70;1.00
54788;DHT22;59598;48.112;16.280;2023-12-04T00:43:58;-4.60;1.00
54788;DHT22;59598;48.112;16.280;2023-12-04T00:46:29;-4.50;1.00
54788;DHT22;59598;48.112;16.280;2023-12-04T00:49:03;-5.00;1.00
54788;DHT22;59598;48.112;16.280;2023-12-04T00:51:40;-5.50;1.00
54788;DHT22;59598;48.112;16.280;2023-12-04T00:54:11;-5.60;1.00
54788;DHT22;59598;48.112;16.280;2023-12-04T00:56:44;-5.40;1.00
54788;DHT22;59598;48.112;16.280;2023-12-04T00:59:17;-5.40;1.00
54788;DHT22;59598;48.112;16.280;2023-12-04T01:01:49;-5.30;1.00
54788;DHT22;59598;48.112;16.280;2023-12-04T01:04:23;-5.30;1.00
54788;DHT22;59598;48.112;16.280;2023-12-04T01:06:54;-5.20;1.00
54788;DHT22;59598;48.112;16.280;2023-12-04T01:09:25;-5.20;1.00
54788;DHT22;59598;48.112;16.280;2023-12-04T01:11:59;-5.10;1.00
54788;DHT22;59598;48.112;16.280;2023-12-04T01:14:30;-5.10;1.00
54788;DHT22;59598;48.112;16.280;2023-12-04T01:17:05;-5.30;1.00
54788;DHT22;59598;48.112;16.280;2023-12-04T01:19:42;-5.30;1.00
54788;DHT22;59598;48.112;16.280;2023-12-04T01:22:13;-5.00;1.00
54788;DHT22;59598;48.112;16.280;2023-12-04T01:24:45;-5.00;1.00
54788;DHT22;59598;48.112;16.280;2023-12-04T01:27:18;-4.70;1.00
54788;DHT22;59598;48.112;16.280;2023-12-04T01:29:52;-4.60;1.00
54788;DHT22;59598;48.112;16.280;2023-12-04T01:32:29;-4.60;1.00
54788;DHT22;59598;48.112;16.280;2023-12-04T01:35:06;-4.50;1.00
54788;DHT22;59598;48.112;16.280;2023-12-04T01:37:44;-4.80;1.00
54788;DHT22;59598;48.112;16.280;2023-12-04T01:40:18;-5.20;1.00
54788;DHT22;59598;48.112;16.280;2023-12-04T01:42:52;-5.70;1.00
54788;DHT22;59598;48.112;16.280;2023-12-04T01:45:31;-6.10;1.00
54788;DHT22;59598;48.112;16.280;2023-12-04T01:48:03;-6.00;1.00
54788;DHT22;59598;48.112;16.280;2023-12-04T01:50:35;-5.60;1.00
54788;DHT22;59598;48.112;16.280;2023-12-04T01:53:07;-5.40;1.00
54788;DHT22;59598;48.112;16.280;2023-12-04T01:55:41;-5.40;1.00
54788;DHT22;59598;48.112;16.280;2023-12-04T01:58:13;-5.10;1.00
54788;DHT22;59598;48.112;16.280;2023-12-04T02:00:44;-4.90;1.00
54788;DHT22;59598;48.112;16.280;2023-12-04T02:03:18;-4.90;1.00
54788;DHT22;59598;48.112;16.280;2023-12-04T02:05:56;-5.10;1.00
54788;DHT22;59598;48.112;16.280;2023-12-04T02:08:33;-5.20;1.00
54788;DHT22;59598;48.112;16.280;2023-12-04T02:11:11;-5.60;1.00
54788;DHT22;59598;48.112;16.280;2023-12-04T02:13:42;-5.80;1.00
54788;DHT22;59598;48.112;16.280;2023-12-04T02:16:17;-5.40;1.00
54788;DHT22;59598;48.112;16.280;2023-12-04T02:18:54;-5.20;1.00
54788;DHT22;59598;48.112;16.280;2023-12-04T02:21:28;-5.20;1.00
54788;DHT22;59598;48.112;16.280;2023-12-04T02:24:02;-5.50;1.00
54788;DHT22;59598;48.112;16.280;2023-12-04T02:26:46;-5.50;1.00
54788;DHT22;59598;48.112;16.280;2023-12-04T02:29:51;-5.50;1.00
54788;DHT22;59598;48.112;16.280;2023-12-04T02:32:23;-5.40;1.00
54788;DHT22;59598;48.112;16.280;2023-12-04T02:34:56;-5.50;1.00
54788;DHT22;59598;48.112;16.280;2023-12-04T02:37:28;-5.90;1.00
54788;DHT22;59598;48.112;16.280;2023-12-04T02:40:02;-6.10;1.00
54788;DHT22;59598;48.112;16.280;2023-12-04T02:42:34;-6.10;1.00
54788;DHT22;59598;48.112;16.280;2023-12-04T02:45:08;-5.80;1.00
54788;DHT22;59598;48.112;16.280;2023-12-04T02:47:40;-5.70;1.00
54788;DHT22;59598;48.112;16.280;2023-12-04T02:50:23;-5.50;1.00
54788;DHT22;59598;48.112;16.280;2023-12-04T02:52:57;-5.30;1.00
54788;DHT22;59598;48.112;16.280;2023-12-04T02:55:31;-5.30;1.00
54788;DHT22;59598;48.112;16.280;2023-12-04T02:58:02;-5.40;1.00
54788;DHT22;59598;48.112;16.280;2023-12-04T03:00:36;-5.40;1.00
54788;DHT22;59598;48.112;16.280;2023-12-04T03:03:07;-5.20;1.00
54788;DHT22;59598;48.112;16.280;2023-12-04T03:05:41;-5.20;1.00
54788;DHT22;59598;48.112;16.280;2023-12-04T03:08:15;-5.30;1.00
54788;DHT22;59598;48.112;16.280;2023-12-04T03:10:46;-5.30;1.00
54788;DHT22;59598;48.112;16.280;2023-12-04T03:13:18;-5.40;1.00
54788;DHT22;59598;48.112;16.280;2023-12-04T03:15:49;-5.50;1.00
54788;DHT22;59598;48.112;16.280;2023-12-04T03:18:23;-5.60;1.00
54788;DHT22;59598;48.112;16.280;2023-12-04T03:20:56;-5.70;1.00
54788;DHT22;59598;48.112;16.280;2023-12-04T03:23:28;-6.00;1.00
54788;DHT22;59598;48.112;16.280;2023-12-04T03:26:02;-5.80;1.00
54788;DHT22;59598;48.112;16.280;2023-12-04T03:28:33;-5.60;1.00
54788;DHT22;59598;48.112;16.280;2023-12-04T03:31:07;-5.80;1.00
54788;DHT22;59598;48.112;16.280;2023-12-04T03:33:38;-6.10;1.00
54788;DHT22;59598;48.112;16.280;2023-12-04T03:36:10;-6.20;1.00
54788;DHT22;59598;48.112;16.280;2023-12-04T03:38:43;-6.60;1.00
54788;DHT22;59598;48.112;16.280;2023-12-04T03:41:15;-6.60;1.00
54788;DHT22;59598;48.112;16.280;2023-12-04T03:43:47;-6.60;1.00
54788;DHT22;59598;48.112;16.280;2023-12-04T03:46:20;-6.30;1.00
54788;DHT22;59598;48.112;16.280;2023-12-04T03:48:51;-6.30;1.00
54788;DHT22;59598;48.112;16.280;2023-12-04T03:51:23;-6.10;1.00
54788;DHT22;59598;48.112;16.280;2023-12-04T03:53:54;-5.80;1.00
54788;DHT22;59598;48.112;16.280;2023-12-04T03:56:27;-5.60;1.00
54788;DHT22;59598;48.112;16.280;2023-12-04T03:59:01;-5.60;1.00
54788;DHT22;59598;48.112;16.280;2023-12-04T04:01:37;-5.70;1.00
54788;DHT22;59598;48.112;16.280;2023-12-04T04:04:17;-6.30;1.00
54788;DHT22;59598;48.112;16.280;2023-12-04T04:06:51;-6.50;1.00
54788;DHT22;59598;48.112;16.280;2023-12-04T04:09:22;-6.30;1.00
54788;DHT22;59598;48.112;16.280;2023-12-04T04:11:59;-6.30;1.00
54788;DHT22;59598;48.112;16.280;2023-12-04T04:14:32;-6.40;1.00
54788;DHT22;59598;48.112;16.280;2023-12-04T04:17:03;-6.50;1.00
54788;DHT22;59598;48.112;16.280;2023-12-04T04:19:36;-6.00;1.00
54788;DHT22;59598;48.112;16.280;2023-12-04T04:22:09;-6.00;1.00
54788;DHT22;59598;48.112;16.280;2023-12-04T04:24:41;-6.00;1.00
54788;DHT22;59598;48.112;16.280;2023-12-04T04:27:18;-6.20;1.00
54788;DHT22;59598;48.112;16.280;2023-12-04T04:29:49;-6.40;1.00
54788;DHT22;59598;48.112;16.280;2023-12-04T04:32:23;-6.60;1.00
54788;DHT22;59598;48.112;16.280;2023-12-04T04:34:54;-6.60;1.00
54788;DHT22;59598;48.112;16.280;2023-12-04T04:37:25;-6.60;1.00
54788;DHT22;59598;48.112;16.280;2023-12-04T04:39:56;-6.60;1.00
54788;DHT22;59598;48.112;16.280;2023-12-04T04:42:30;-6.50;1.00
54788;DHT22;59598;48.112;16.280;2023-12-04T04:45:01;-6.20;1.00
54788;DHT22;59598;48.112;16.280;2023-12-04T04:47:32;-6.00;1.00
54788;DHT22;59598;48.112;16.280;2023-12-04T04:50:06;-6.20;1.00
54788;DHT22;59598;48.112;16.280;2023-12-04T04:52:42;-6.20;1.00
54788;DHT22;59598;48.112;16.280;2023-12-04T04:55:16;-6.20;1.00
54788;DHT22;59598;48.112;16.280;2023-12-04T04:57:50;-6.00;1.00
54788;DHT22;59598;48.112;16.280;2023-12-04T05:00:21;-6.00;1.00
54788;DHT22;59598;48.112;16.280;2023-12-04T05:02:52;-5.90;1.00
54788;DHT22;59598;48.112;16.280;2023-12-04T05:05:26;-5.90;1.00
54788;DHT22;59598;48.112;16.280;2023-12-04T05:07:57;-6.00;1.00
54788;DHT22;59598;48.112;16.280;2023-12-04T05:10:31;-6.30;1.00
54788;DHT22;59598;48.112;16.280;2023-12-04T05:13:02;-6.40;1.00
54788;DHT22;59598;48.112;16.280;2023-12-04T05:15:36;-6.50;1.00
54788;DHT22;59598;48.112;16.280;2023-12-04T05:18:09;-6.30;1.00
54788;DHT22;59598;48.112;16.280;2023-12-04T05:20:40;-6.00;1.00
54788;DHT22;59598;48.112;16.280;2023-12-04T05:23:12;-5.90;1.00
54788;DHT22;59598;48.112;16.280;2023-12-04T05:25:43;-5.80;1.00
54788;DHT22;59598;48.112;16.280;2023-12-04T05:28:14;-5.90;1.00
54788;DHT22;59598;48.112;16.280;2023-12-04T05:30:45;-5.90;1.00
54788;DHT22;59598;48.112;16.280;2023-12-04T05:33:24;-5.80;1.00
54788;DHT22;59598;48.112;16.280;2023-12-04T05:35:55;-5.80;1.00
54788;DHT22;59598;48.112;16.280;2023-12-04T05:38:30;-5.80;1.00
54788;DHT22;59598;48.112;16.280;2023-12-04T05:41:02;-5.80;1.00
54788;DHT22;59598;48.112;16.280;2023-12-04T05:43:34;-6.20;1.00
54788;DHT22;59598;48.112;16.280;2023-12-04T05:46:06;-6.90;99.90
54788;DHT22;59598;48.112;16.280;2023-12-04T05:48:38;-6.90;1.00
54788;DHT22;59598;48.112;16.280;2023-12-04T05:51:13;-7.00;1.00
54788;DHT22;59598;48.112;16.280;2023-12-04T05:53:46;-6.70;1.00
54788;DHT22;59598;48.112;16.280;2023-12-04T05:56:22;-6.70;1.00
54788;DHT22;59598;48.112;16.280;2023-12-04T05:58:56;-6.50;1.00
54788;DHT22;59598;48.112;16.280;2023-12-04T06:01:27;-6.50;1.00
54788;DHT22;59598;48.112;16.280;2023-12-04T06:03:59;-6.40;1.00
54788;DHT22;59598;48.112;16.280;2023-12-04T06:06:32;-6.40;1.00
54788;DHT22;59598;48.112;16.280;2023-12-04T06:09:03;-6.40;1.00
54788;DHT22;59598;48.112;16.280;2023-12-04T06:11:37;-6.20;1.00
54788;DHT22;59598;48.112;16.280;2023-12-04T06:14:16;-6.30;1.00
54788;DHT22;59598;48.112;16.280;2023-12-04T06:16:48;-6.40;1.00
54788;DHT22;59598;48.112;16.280;2023-12-04T06:19:19;-6.60;1.00
54788;DHT22;59598;48.112;16.280;2023-12-04T06:21:52;-6.60;1.00
54788;DHT22;59598;48.112;16.280;2023-12-04T06:24:26;-6.50;1.00
54788;DHT22;59598;48.112;16.280;2023-12-04T06:26:58;-6.40;1.00
54788;DHT22;59598;48.112;16.280;2023-12-04T06:29:31;-6.40;1.00
54788;DHT22;59598;48.112;16.280;2023-12-04T06:32:09;-6.60;1.00
54788;DHT22;59598;48.112;16.280;2023-12-04T06:34:44;-6.80;1.00
54788;DHT22;59598;48.112;16.280;2023-12-04T06:37:18;-6.70;1.00
54788;DHT22;59598;48.112;16.280;2023-12-04T06:39:50;-6.40;1.00
54788;DHT22;59598;48.112;16.280;2023-12-04T06:42:24;-6.30;1.00
54788;DHT22;59598;48.112;16.280;2023-12-04T06:45:01;-6.10;1.00
54788;DHT22;59598;48.112;16.280;2023-12-04T06:47:34;-5.90;1.00
54788;DHT22;59598;48.112;16.280;2023-12-04T06:50:06;-5.70;1.00
54788;DHT22;59598;48.112;16.280;2023-12-04T06:52:37;-5.70;1.00
54788;DHT22;59598;48.112;16.280;2023-12-04T06:55:09;-5.60;1.00
54788;DHT22;59598;48.112;16.280;2023-12-04T06:57:40;-5.60;1.00
54788;DHT22;59598;48.112;16.280;2023-12-04T07:00:12;-5.50;1.00
54788;DHT22;59598;48.112;16.280;2023-12-04T07:02:45;-5.40;1.00
54788;DHT22;59598;48.112;16.280;2023-12-04T07:05:17;-5.50;1.00
54788;DHT22;59598;48.112;16.280;2023-12-04T07:07:48;-5.50;1.00
54788;DHT22;59598;48.112;16.280;2023-12-04T07:10:24;-5.60;1.00
54788;DHT22;59598;48.112;16.280;2023-12-04T07:12:56;-5.30;1.00
54788;DHT22;59598;48.112;16.280;2023-12-04T07:15:30;-5.10;1.00
54788;DHT22;59598;48.112;16.280;2023-12-04T07:18:01;-4.90;1.00
54788;DHT22;59598;48.112;16.280;2023-12-04T07:20:32;-4.60;1.00
54788;DHT22;59598;48.112;16.280;2023-12-04T07:23:04;-4.50;1.00
54788;DHT22;59598;48.112;16.280;2023-12-04T07:25:38;-4.50;1.00
54788;DHT22;59598;48.112;16.280;2023-12-04T07:28:09;-4.30;1.00
54788;DHT22;59598;48.112;16.280;2023-12-04T07:30:43;-4.30;1.00
54788;DHT22;59598;48.112;16.280;2023-12-04T07:33:17;-4.50;1.00
54788;DHT22;59598;48.112;16.280;2023-12-04T07:35:54;-4.50;1.00
54788;DHT22;59598;48.112;16.280;2023-12-04T07:38:27;-4.40;1.00
54788;DHT22;59598;48.112;16.280;2023-12-04T07:41:01;-4.30;1.00
54788;DHT22;59598;48.112;16.280;2023-12-04T07:43:32;-4.30;99.90
54788;DHT22;59598;48.112;16.280;2023-12-04T07:46:06;-4.30;99.90
54788;DHT22;59598;48.112;16.280;2023-12-04T07:48:40;-4.50;1.00
54788;DHT22;59598;48.112;16.280;2023-12-04T07:51:15;-4.50;1.00
54788;DHT22;59598;48.112;16.280;2023-12-04T07:53:47;-4.40;1.00
54788;DHT22;59598;48.112;16.280;2023-12-04T07:56:20;-4.20;1.00
54788;DHT22;59598;48.112;16.280;2023-12-04T07:58:52;-4.10;1.00
54788;DHT22;59598;48.112;16.280;2023-12-04T08:01:25;-3.80;1.00
54788;DHT22;59598;48.112;16.280;2023-12-04T08:03:57;-3.50;1.00
54788;DHT22;59598;48.112;16.280;2023-12-04T08:06:28;-3.50;1.00
54788;DHT22;59598;48.112;16.280;2023-12-04T08:09:03;-3.30;1.00
54788;DHT22;59598;48.112;16.280;2023-12-04T08:11:37;-3.20;1.00
54788;DHT22;59598;48.112;16.280;2023-12-04T08:14:10;-3.00;1.00
54788;DHT22;59598;48.112;16.280;2023-12-04T08:16:41;-3.00;1.00
54788;DHT22;59598;48.112;16.280;2023-12-04T08:19:15;-2.90;1.00
54788;DHT22;59598;48.112;16.280;2023-12-04T08:21:46;-2.90;99.90
54788;DHT22;59598;48.112;16.280;2023-12-04T08:24:18;-3.20;1.00
54788;DHT22;59598;48.112;16.280;2023-12-04T08:26:49;-3.60;1.00
54788;DHT22;59598;48.112;16.280;2023-12-04T08:29:21;-3.60;1.00
54788;DHT22;59598;48.112;16.280;2023-12-04T08:31:52;-3.40;99.90
54788;DHT22;59598;48.112;16.280;2023-12-04T08:34:26;-3.20;1.00
54788;DHT22;59598;48.112;16.280;2023-12-04T08:37:00;-2.80;1.00
54788;DHT22;59598;48.112;16.280;2023-12-04T08:39:32;-2.80;99.90
54788;DHT22;59598;48.112;16.280;2023-12-04T08:42:05;-2.80;1.00
54788;DHT22;59598;48.112;16.280;2023-12-04T08:44:37;-3.00;1.00
54788;DHT22;59598;48.112;16.280;2023-12-04T08:47:11;-3.30;1.00
54788;DHT22;59598;48.112;16.280;2023-12-04T08:49:44;-3.50;99.90
54788;DHT22;59598;48.112;16.280;2023-12-04T08:52:20;-3.30;1.00
54788;DHT22;59598;48.112;16.280;2023-12-04T08:54:52;-3.10;1.00
54788;DHT22;59598;48.112;16.280;2023-12-04T08:57:30;-2.80;1.00
54788;DHT22;59598;48.112;16.280;2023-12-04T09:00:04;-2.50;5.90
54788;DHT22;59598;48.112;16.280;2023-12-04T09:02:36;-2.20;12.90
54788;DHT22;59598;48.112;16.280;2023-12-04T09:05:07;-2.10;1.00
54788;DHT22;59598;48.112;16.280;2023-12-04T09:07:41;-1.90;1.00
54788;DHT22;59598;48.112;16.280;2023-12-04T09:10:15;-2.00;1.00
54788;DHT22;59598;48.112;16.280;2023-12-04T09:12:48;-1.80;95.20
54788;DHT22;59598;48.112;16.280;2023-12-04T09:15:19;-1.80;1.00
54788;DHT22;59598;48.112;16.280;2023-12-04T09:17:51;-1.70;99.90
54788;DHT22;59598;48.112;16.280;2023-12-04T09:20:25;-1.80;1.00
54788;DHT22;59598;48.112;16.280;2023-12-04T09:22:56;-2.50;13.00
54788;DHT22;59598;48.112;16.280;2023-12-04T09:25:27;-2.30;99.90
54788;DHT22;59598;48.112;16.280;2023-12-04T09:27:59;-2.10;1.00
54788;DHT22;59598;48.112;16.280;2023-12-04T09:30:30;-2.40;39.90
54788;DHT22;59598;48.112;16.280;2023-12-04T09:33:03;-2.30;99.90
54788;DHT22;59598;48.112;16.280;2023-12-04T09:35:40;-2.00;99.90
54788;DHT22;59598;48.112;16.280;2023-12-04T09:38:14;-1.50;99.90
54788;DHT22;59598;48.112;16.280;2023-12-04T09:40:49;-1.20;99.90
54788;DHT22;59598;48.112;16.280;2023-12-04T09:43:21;-0.60;99.90
54788;DHT22;59598;48.112;16.280;2023-12-04T09:45:58;-0.50;25.80
54788;DHT22;59598;48.112;16.280;2023-12-04T09:48:33;-0.70;97.50
54788;DHT22;59598;48.112;16.280;2023-12-04T09:51:04;-0.40;29.40
54788;DHT22;59598;48.112;16.280;2023-12-04T09:53:40;0.10;99.90
54788;DHT22;59598;48.112;16.280;2023-12-04T09:56:15;0.10;1.00
54788;DHT22;59598;48.112;16.280;2023-12-04T09:58:51;0.30;99.90
54788;DHT22;59598;48.112;16.280;2023-12-04T10:01:24;0.60;99.90
54788;DHT22;59598;48.112;16.280;2023-12-04T10:03:57;0.70;99.90
54788;DHT22;59598;48.112;16.280;2023-12-04T10:06:34;1.30;99.90
54788;DHT22;59598;48.112;16.280;2023-12-04T10:09:07;1.70;99.90
54788;DHT22;59598;48.112;16.280;2023-12-04T10:11:42;2.10;99.90
54788;DHT22;59598;48.112;16.280;2023-12-04T10:14:17;2.40;1.00
54788;DHT22;59598;48.112;16.280;2023-12-04T10:16:51;2.30;99.90
54788;DHT22;59598;48.112;16.280;2023-12-04T10:19:26;2.40;99.90
54788;DHT22;59598;48.112;16.280;2023-12-04T10:22:00;2.40;99.90
54788;DHT22;59598;48.112;16.280;2023-12-04T10:24:35;2.40;99.90
54788;DHT22;59598;48.112;16.280;2023-12-04T10:27:09;2.00;99.90
54788;DHT22;59598;48.112;16.280;2023-12-04T10:29:53;2.10;99.90
54788;DHT22;59598;48.112;16.280;2023-12-04T10:32:27;2.10;99.90
54788;DHT22;59598;48.112;16.280;2023-12-04T10:35:01;2.10;99.90
54788;DHT22;59598;48.112;16.280;2023-12-04T10:37:32;2.40;1.00
54788;DHT22;59598;48.112;16.280;2023-12-04T10:40:06;1.30;5.10
54788;DHT22;59598;48.112;16.280;2023-12-04T10:42:41;1.30;1.00
54788;DHT22;59598;48.112;16.280;2023-12-04T10:45:12;1.90;99.90
54788;DHT22;59598;48.112;16.280;2023-12-04T10:47:46;2.30;1.00
54788;DHT22;59598;48.112;16.280;2023-12-04T10:50:18;2.70;40.20
54788;DHT22;59598;48.112;16.280;2023-12-04T10:52:52;2.70;99.90
54788;DHT22;59598;48.112;16.280;2023-12-04T10:55:24;2.90;1.00
54788;DHT22;59598;48.112;16.280;2023-12-04T10:57:57;2.80;1.00
54788;DHT22;59598;48.112;16.280;2023-12-04T11:00:32;2.70;1.00
54788;DHT22;59598;48.112;16.280;2023-12-04T11:03:13;3.30;1.00
54788;DHT22;59598;48.112;16.280;2023-12-04T11:05:45;3.60;1.00
54788;DHT22;59598;48.112;16.280;2023-12-04T11:08:19;4.10;1.00
54788;DHT22;59598;48.112;16.280;2023-12-04T11:11:02;4.90;1.00
54788;DHT22;59598;48.112;16.280;2023-12-04T11:13:40;4.80;1.00
54788;DHT22;59598;48.112;16.280;2023-12-04T11:22:09;5.50;1.00
54788;DHT22;59598;48.112;16.280;2023-12-04T11:24:41;5.70;99.90
54788;DHT22;59598;48.112;16.280;2023-12-04T11:27:12;5.40;99.90
54788;DHT22;59598;48.112;16.280;2023-12-04T11:29:45;4.90;1.00
54788;DHT22;59598;48.112;16.280;2023-12-04T11:32:17;4.30;99.90
54788;DHT22;59598;48.112;16.280;2023-12-04T11:34:54;3.80;99.90
54788;DHT22;59598;48.112;16.280;2023-12-04T11:37:27;3.80;99.90
54788;DHT22;59598;48.112;16.280;2023-12-04T11:40:05;3.70;99.90
54788;DHT22;59598;48.112;16.280;2023-12-04T11:42:38;3.30;32.30
54788;DHT22;59598;48.112;16.280;2023-12-04T11:45:19;2.80;78.00
54788;DHT22;59598;48.112;16.280;2023-12-04T11:47:59;2.50;93.90
54788;DHT22;59598;48.112;16.280;2023-12-04T11:50:31;2.10;1.00
54788;DHT22;59598;48.112;16.280;2023-12-04T11:53:03;2.10;1.00
54788;DHT22;59598;48.112;16.280;2023-12-04T11:55:39;2.70;1.00
54788;DHT22;59598;48.112;16.280;2023-12-04T11:58:16;3.00;51.00
54788;DHT22;59598;48.112;16.280;2023-12-04T12:00:49;3.40;99.90
54788;DHT22;59598;48.112;16.280;2023-12-04T12:03:28;3.20;4.80
54788;DHT22;59598;48.112;16.280;2023-12-04T12:06:01;3.30;1.00
54788;DHT22;59598;48.112;16.280;2023-12-04T12:08:36;3.50;1.00
54788;DHT22;59598;48.112;16.280;2023-12-04T12:11:07;3.30;1.00
54788;DHT22;59598;48.112;16.280;2023-12-04T12:13:41;2.90;1.00
54788;DHT22;59598;48.112;16.280;2023-12-04T12:16:12;2.80;1.00
54788;DHT22;59598;48.112;16.280;2023-12-04T12:18:43;2.70;1.00
54788;DHT22;59598;48.112;16.280;2023-12-04T12:21:15;2.60;1.00
54788;DHT22;59598;48.112;16.280;2023-12-04T12:23:48;1.90;1.00
54788;DHT22;59598;48.112;16.280;2023-12-04T12:26:23;1.60;1.00
54788;DHT22;59598;48.112;16.280;2023-12-04T12:28:57;1.20;1.00
54788;DHT22;59598;48.112;16.280;2023-12-04T12:31:28;1.00;1.00
54788;DHT22;59598;48.112;16.280;2023-12-04T12:34:02;1.10;1.00
54788;DHT22;59598;48.112;16.280;2023-12-04T12:36:37;1.30;1.00
54788;DHT22;59598;48.112;16.280;2023-12-04T12:39:11;1.60;1.00
54788;DHT22;59598;48.112;16.280;2023-12-04T12:41:51;1.80;1.00
54788;DHT22;59598;48.112;16.280;2023-12-04T12:44:23;2.00;1.00
54788;DHT22;59598;48.112;16.280;2023-12-04T12:46:56;2.20;1.00
54788;DHT22;59598;48.112;16.280;2023-12-04T12:49:28;2.20;1.00
54788;DHT22;59598;48.112;16.280;2023-12-04T12:52:01;2.10;1.00
54788;DHT22;59598;48.112;16.280;2023-12-04T12:54:32;1.90;1.00
54788;DHT22;59598;48.112;16.280;2023-12-04T12:57:07;1.50;1.00
54788;DHT22;59598;48.112;16.280;2023-12-04T12:59:39;1.30;1.00
54788;DHT22;59598;48.112;16.280;2023-12-04T13:02:16;1.10;1.00
54788;DHT22;59598;48.112;16.280;2023-12-04T13:04:53;1.00;1.00
54788;DHT22;59598;48.112;16.280;2023-12-04T13:07:26;0.90;1.00
54788;DHT22;59598;48.112;16.280;2023-12-04T13:09:57;0.80;1.00
54788;DHT22;59598;48.112;16.280;2023-12-04T13:12:33;0.80;1.00
54788;DHT22;59598;48.112;16.280;2023-12-04T13:15:05;0.80;1.00
54788;DHT22;59598;48.112;16.280;2023-12-04T13:17:39;0.70;1.00
54788;DHT22;59598;48.112;16.280;2023-12-04T13:20:12;0.70;1.00
54788;DHT22;59598;48.112;16.280;2023-12-04T13:22:50;0.70;1.00
54788;DHT22;59598;48.112;16.280;2023-12-04T13:25:24;0.70;1.00
54788;DHT22;59598;48.112;16.280;2023-12-04T13:27:55;0.60;1.00
54788;DHT22;59598;48.112;16.280;2023-12-04T13:30:27;0.50;1.00
54788;DHT22;59598;48.112;16.280;2023-12-04T13:32:58;0.50;1.00
54788;DHT22;59598;48.112;16.280;2023-12-04T13:35:29;0.50;1.00
54788;DHT22;59598;48.112;16.280;2023-12-04T13:38:00;0.50;99.90
54788;DHT22;59598;48.112;16.280;2023-12-04T13:40:34;0.40;99.90
54788;DHT22;59598;48.112;16.280;2023-12-04T13:43:09;0.30;99.90
54788;DHT22;59598;48.112;16.280;2023-12-04T13:45:59;0.30;99.90
54788;DHT22;59598;48.112;16.280;2023-12-04T13:48:30;0.30;1.00
54788;DHT22;59598;48.112;16.280;2023-12-04T13:51:01;0.30;1.00
54788;DHT22;59598;48.112;16.280;2023-12-04T13:53:33;0.30;99.90
54788;DHT22;59598;48.112;16.280;2023-12-04T13:56:07;0.30;1.00
54788;DHT22;59598;48.112;16.280;2023-12-04T13:58:56;0.30;1.00
54788;DHT22;59598;48.112;16.280;2023-12-04T14:01:27;0.20;99.90
54788;DHT22;59598;48.112;16.280;2023-12-04T14:03:59;0.20;1.00
54788;DHT22;59598;48.112;16.280;2023-12-04T14:06:33;0.20;1.00
54788;DHT22;59598;48.112;16.280;2023-12-04T14:09:10;0.20;1.00
54788;DHT22;59598;48.112;16.280;2023-12-04T14:11:45;0.10;1.00
54788;DHT22;59598;48.112;16.280;2023-12-04T14:14:17;0.10;1.00
54788;DHT22;59598;48.112;16.280;2023-12-04T14:16:49;0.10;1.00
54788;DHT22;59598;48.112;16.280;2023-12-04T14:19:20;0.10;1.00
54788;DHT22;59598;48.112;16.280;2023-12-04T14:21:52;0.00;1.00
54788;DHT22;59598;48.112;16.280;2023-12-04T14:24:23;0.00;1.00
54788;DHT22;59598;48.112;16.280;2023-12-04T14:26:55;0.00;1.00
54788;DHT22;59598;48.112;16.280;2023-12-04T14:29:26;-0.10;99.90
54788;DHT22;59598;48.112;16.280;2023-12-04T14:31:57;-0.10;1.00
54788;DHT22;59598;48.112;16.280;2023-12-04T14:34:31;0.00;1.00
54788;DHT22;59598;48.112;16.280;2023-12-04T14:37:03;0.00;99.90
54788;DHT22;59598;48.112;16.280;2023-12-04T14:39:35;0.00;99.90
54788;DHT22;59598;48.112;16.280;2023-12-04T14:42:09;0.00;99.90
54788;DHT22;59598;48.112;16.280;2023-12-04T14:44:43;0.00;99.90
54788;DHT22;59598;48.112;16.280;2023-12-04T14:47:16;0.00;99.90
54788;DHT22;59598;48.112;16.280;2023-12-04T14:49:48;-0.10;99.90
54788;DHT22;59598;48.112;16.280;2023-12-04T14:52:25;-0.10;99.90
54788;DHT22;59598;48.112;16.280;2023-12-04T14:54:59;-0.10;99.90
54788;DHT22;59598;48.112;16.280;2023-12-04T14:57:39;-0.10;99.90
54788;DHT22;59598;48.112;16.280;2023-12-04T15:00:11;-0.20;99.90
54788;DHT22;59598;48.112;16.280;2023-12-04T15:02:54;-0.20;99.90
54788;DHT22;59598;48.112;16.280;2023-12-04T15:05:41;-0.20;99.90
54788;DHT22;59598;48.112;16.280;2023-12-04T15:08:16;-0.20;99.90
54788;DHT22;59598;48.112;16.280;2023-12-04T15:11:06;-0.20;99.90
54788;DHT22;59598;48.112;16.280;2023-12-04T15:13:43;-0.30;99.90
54788;DHT22;59598;48.112;16.280;2023-12-04T15:16:14;-0.20;99.90
54788;DHT22;59598;48.112;16.280;2023-12-04T15:18:57;-0.20;99.90
54788;DHT22;59598;48.112;16.280;2023-12-04T15:21:51;-0.20;99.90
54788;DHT22;59598;48.112;16.280;2023-12-04T15:24:25;-0.20;99.90
54788;DHT22;59598;48.112;16.280;2023-12-04T15:26:59;-0.20;99.90
54788;DHT22;59598;48.112;16.280;2023-12-04T15:29:34;-0.20;99.90
54788;DHT22;59598;48.112;16.280;2023-12-04T15:32:07;-0.20;99.90
54788;DHT22;59598;48.112;16.280;2023-12-04T15:34:38;-0.20;99.90
54788;DHT22;59598;48.112;16.280;2023-12-04T15:37:09;-0.20;99.90
54788;DHT22;59598;48.112;16.280;2023-12-04T15:39:43;-0.20;99.90
54788;DHT22;59598;48.112;16.280;2023-12-04T15:42:14;-0.20;99.90
54788;DHT22;59598;48.112;16.280;2023-12-04T15:44:45;-0.20;99.90
54788;DHT22;59598;48.112;16.280;2023-12-04T15:47:19;-0.20;99.90
54788;DHT22;59598;48.112;16.280;2023-12-04T15:49:51;-0.20;99.90
54788;DHT22;59598;48.112;16.280;2023-12-04T15:52:25;-0.20;99.90
54788;DHT22;59598;48.112;16.280;2023-12-04T15:54:57;-0.20;99.90
54788;DHT22;59598;48.112;16.280;2023-12-04T15:57:28;-0.20;99.90
54788;DHT22;59598;48.112;16.280;2023-12-04T16:00:02;-0.20;99.90
54788;DHT22;59598;48.112;16.280;2023-12-04T16:02:34;-0.20;99.90
54788;DHT22;59598;48.112;16.280;2023-12-04T16:05:10;-0.20;99.90
54788;DHT22;59598;48.112;16.280;2023-12-04T16:07:42;-0.20;99.90
54788;DHT22;59598;48.112;16.280;2023-12-04T16:10:13;-0.10;99.90
54788;DHT22;59598;48.112;16.280;2023-12-04T16:12:45;-0.20;99.90
54788;DHT22;59598;48.112;16.280;2023-12-04T16:15:17;-0.20;99.90
54788;DHT22;59598;48.112;16.280;2023-12-04T16:17:50;-0.20;99.90